Aérodrome :
LOGIN :

S'inscrire | Disclaimer

   EN    FR    IT 

 










Légende :    VFR   VFR Marginal   IFR   IFR Intensif   IFR Très Intensif
Visi : 
Plafond : 
>= 8 km
>= 3000ft
5 à 8 km
1000 à 3000 ft
1500m à 5 km
500 à 1000 ft
800 à 1500m
200 à 500 ft
< 800m
< 200 ft
Symboles :   Orages  Brouillard  Fortes neiges  Fortes précipitations  Vent > 20 kt
SIGMETs :   Divers  Orages  Givrage  Turbulence  Onde Orograph.  Cendres Volcan.







- Altitude de l'aérodrome : 245 ft
- Code IATA : BIQ
- Voir les cartes d'approche


LFBZ - Biarritz

DERNIER METAR :
  • 140800Z AUTO 25009KT 210V280 9999 -RA BKN018/// BKN029/// OVC040/// ///TCU 12/10 Q1017 BECMG BKN025

METARs EXPIRÉS :
  • 140730Z AUTO 24008KT 190V280 9999 BKN016 BKN056 BKN076 12/10 Q1017 NOSIG
  • 140700Z AUTO 23009KT 180V260 9999 -RA BKN018/// BKN023/// OVC068/// ///TCU 12/10 Q1017 TEMPO 23015G25KT 3000 -RA BECMG BKN025
  • 140630Z AUTO 24007KT 180V270 9999 BKN018 BKN058 OVC074 12/10 Q1017 TEMPO 23015G25KT 3000 -RA BKN006
  • 140600Z AUTO 22009KT 190V260 9000 -RA FEW025/// BKN062/// BKN074/// ///TCU 11/10 Q1017 TEMPO 23015G25KT 3000 -RA BKN006
  • 140530Z AUTO 23008KT 190V260 9999 -RA FEW028/// BKN040/// BKN058/// ///TCU 11/10 Q1017 TEMPO 23015G25KT 3000 -RA BKN006

TAF TAF LFBZ
Valide du 14 à 06h jusqu'au 15 à 06h UTC


140500Z 1406/1506 23010KT 9999 BKN025
TEMPO 1406/1408 23015G25KT 3000 -RA BKN006
PROB40
TEMPO 1415/1506 26015G25KT 4000 -SHRA
PROB40
TEMPO 1503/1506 27020G40KT 3000 +SHRA BKN015TCU
Pas de NOTAMs connus pour ce terrain.



MET'MAP, la Météo Aéronautique d'un coup d'oeil ! - Copyright ORBIFLY Décembre 2007 - Disclaimer

ORBIFLY MET'MAP TEAM :

Programmation & Développement : Alexandra Zaïnal
Conception & Développement : Baudouin d'Aumeries
Co-Programmation & Développement : Marc-Olivier Méhu
Soutien technique & logistique : Manuel Goepfert

Contact : metmap@orbifly.com




SOURCES & CREDITS :

   NOAA